Time;durP1;ratioP1;P1;durP2;ratioP2;P2;SDS_P1;SDS_P2;PMS_P1;PMS_P2;Temp;Humidity;BMP_temperature;BMP_pressure;BME280_temperature;BME280_humidity;BME280_pressure;Samples;Min_cycle;Max_cycle;Signal;HPM_P1;HPM_P2
2023/04/30 00:00:27;;;;;;;11.90;5.30;;;9.80;1.00;;;;;;5029189;28;20459;-80
2023/04/30 00:02:56;;;;;;;12.03;4.90;;;9.70;1.00;;;;;;5018685;28;20537;-80
2023/04/30 00:05:23;;;;;;;7.53;3.77;;;9.60;1.00;;;;;;5022329;28;20462;-80
2023/04/30 00:07:52;;;;;;;8.07;3.73;;;9.60;1.00;;;;;;5016700;28;20472;-80
2023/04/30 00:10:19;;;;;;;12.03;5.03;;;9.50;1.00;;;;;;5025713;28;20632;-79
2023/04/30 00:12:46;;;;;;;6.87;3.60;;;9.50;1.00;;;;;;5013789;28;21340;-81
2023/04/30 00:15:13;;;;;;;8.23;3.70;;;9.40;1.00;;;;;;5012292;28;20449;-79
2023/04/30 00:17:41;;;;;;;8.50;3.27;;;9.40;1.00;;;;;;5030162;28;21028;-79
2023/04/30 00:20:13;;;;;;;10.73;4.17;;;9.40;1.00;;;;;;5028977;28;20549;-79
2023/04/30 00:22:41;;;;;;;9.83;4.43;;;9.40;1.00;;;;;;5028844;28;20901;-80
2023/04/30 00:25:08;;;;;;;6.90;3.30;;;9.40;1.00;;;;;;5027880;28;21250;-80
2023/04/30 00:27:35;;;;;;;8.17;4.03;;;9.30;1.00;;;;;;5028170;28;21362;-81
2023/04/30 00:30:03;;;;;;;7.50;3.50;;;9.30;1.00;;;;;;5032366;28;20464;-81
2023/04/30 00:32:31;;;;;;;9.43;3.50;;;9.20;1.00;;;;;;5030244;28;20518;-80
2023/04/30 00:34:58;;;;;;;6.83;3.10;;;9.20;1.00;;;;;;5034720;28;20433;-83
2023/04/30 00:37:26;;;;;;;7.20;3.37;;;9.20;1.00;;;;;;5022924;28;20485;-82
2023/04/30 00:39:53;;;;;;;7.03;2.90;;;9.20;1.00;;;;;;5021416;28;20482;-80
2023/04/30 00:42:21;;;;;;;7.93;3.20;;;9.20;1.00;;;;;;5020262;28;20541;-80
2023/04/30 00:44:50;;;;;;;9.20;3.77;;;9.20;1.00;;;;;;5028759;28;20445;-81
2023/04/30 00:47:17;;;;;;;10.17;3.70;;;9.10;1.00;;;;;;5011501;28;20564;-81
2023/04/30 00:49:44;;;;;;;8.80;3.40;;;9.10;1.00;;;;;;5028507;28;20514;-80
2023/04/30 00:52:14;;;;;;;7.00;3.20;;;9.10;1.00;;;;;;5027268;28;21275;-81
2023/04/30 00:54:42;;;;;;;8.70;3.37;;;9.00;1.00;;;;;;5028287;28;20453;-82
2023/04/30 00:57:12;;;;;;;7.50;3.60;;;9.00;1.00;;;;;;5027104;28;20491;-81
2023/04/30 00:59:39;;;;;;;9.97;4.87;;;9.00;1.00;;;;;;5026886;28;20465;-82
2023/04/30 01:02:08;;;;;;;12.33;4.23;;;8.90;1.00;;;;;;5031679;28;20496;-81
2023/04/30 01:04:36;;;;;;;10.63;3.17;;;8.90;1.00;;;;;;5019297;23;20463;-84
2023/04/30 01:07:03;;;;;;;8.20;3.60;;;8.80;1.00;;;;;;4990125;28;20491;-85
2023/04/30 01:09:31;;;;;;;9.27;4.23;;;8.80;1.00;;;;;;4987483;28;20937;-85
2023/04/30 01:12:11;;;;;;;7.63;2.83;;;8.80;1.00;;;;;;4995108;28;20501;-84
2023/04/30 01:14:50;;;;;;;8.70;2.87;;;8.70;1.00;;;;;;4997812;28;20463;-84
2023/04/30 01:17:29;;;;;;;8.00;2.83;;;8.70;1.00;;;;;;4991893;28;20474;-84
2023/04/30 01:19:58;;;;;;;10.30;3.33;;;8.60;1.00;;;;;;4977938;28;21254;-84
2023/04/30 01:22:41;;;;;;;11.73;4.40;;;8.60;1.00;;;;;;4993505;28;20467;-83
2023/04/30 01:25:41;;;;;;;10.23;3.27;;;8.60;1.00;;;;;;4979726;28;20467;-82
2023/04/30 01:28:16;;;;;;;10.67;3.60;;;8.50;1.00;;;;;;4998066;28;20474;-84
2023/04/30 01:30:47;;;;;;;9.30;3.60;;;8.50;1.00;;;;;;5000760;28;20444;-84
2023/04/30 01:33:15;;;;;;;7.97;3.00;;;8.50;1.00;;;;;;4998640;28;20451;-83
2023/04/30 01:36:08;;;;;;;8.67;3.63;;;8.40;1.00;;;;;;5006451;28;20460;-82
2023/04/30 01:38:50;;;;;;;7.20;3.43;;;8.40;1.00;;;;;;5003279;28;21395;-83
2023/04/30 01:41:26;;;;;;;10.20;3.40;;;8.40;1.00;;;;;;5006240;28;20428;-81
2023/04/30 01:44:06;;;;;;;10.60;3.00;;;8.40;1.00;;;;;;5009745;28;20633;-82
2023/04/30 01:46:34;;;;;;;8.70;3.93;;;8.30;1.00;;;;;;5003426;28;20459;-82
2023/04/30 01:49:09;;;;;;;13.10;3.60;;;8.30;1.00;;;;;;5006752;28;20463;-83
2023/04/30 01:51:41;;;;;;;11.33;3.17;;;8.20;1.00;;;;;;4999784;28;20431;-83
2023/04/30 01:54:18;;;;;;;8.73;3.43;;;8.20;1.00;;;;;;4998390;28;20455;-82
2023/04/30 01:56:53;;;;;;;9.13;3.00;;;8.20;1.00;;;;;;5002594;28;20431;-82
2023/04/30 01:59:27;;;;;;;10.20;3.20;;;8.10;1.00;;;;;;5004260;28;20451;-84
2023/04/30 02:01:56;;;;;;;9.13;3.07;;;8.10;1.00;;;;;;5007856;28;20479;-82
2023/04/30 02:04:25;;;;;;;8.10;2.87;;;8.10;1.00;;;;;;5004576;28;20610;-82
2023/04/30 02:06:53;;;;;;;11.47;3.30;;;8.10;1.00;;;;;;5002332;28;20459;-83
2023/04/30 02:09:22;;;;;;;10.00;4.33;;;8.10;1.00;;;;;;5007743;28;20456;-83
2023/04/30 02:11:50;;;;;;;6.60;2.60;;;8.10;1.00;;;;;;5010114;28;20415;-82
2023/04/30 02:14:18;;;;;;;9.43;3.70;;;8.00;1.00;;;;;;5000343;28;20443;-82
2023/04/30 02:16:47;;;;;;;10.40;3.20;;;8.00;1.00;;;;;;4998012;28;21197;-83
2023/04/30 02:19:14;;;;;;;11.03;3.43;;;8.00;1.00;;;;;;5002757;28;20435;-83
2023/04/30 02:21:41;;;;;;;9.60;3.13;;;8.00;1.00;;;;;;5005590;28;20522;-83
2023/04/30 02:24:08;;;;;;;8.67;2.87;;;8.00;1.00;;;;;;5008277;28;20423;-83
2023/04/30 02:26:35;;;;;;;12.60;3.47;;;7.90;1.00;;;;;;5006199;28;20419;-83
2023/04/30 02:29:02;;;;;;;10.57;4.20;;;7.90;1.00;;;;;;5007234;28;20455;-82
2023/04/30 02:31:29;;;;;;;12.40;4.17;;;7.90;1.00;;;;;;5003771;28;20456;-83
2023/04/30 02:33:58;;;;;;;10.30;3.93;;;7.80;1.00;;;;;;5002747;28;20432;-83
2023/04/30 02:36:25;;;;;;;11.23;4.50;;;7.80;1.00;;;;;;5007467;28;20431;-81
2023/04/30 02:38:52;;;;;;;9.60;3.37;;;7.80;1.00;;;;;;4995924;28;20498;-82
2023/04/30 02:41:21;;;;;;;11.00;3.67;;;7.70;1.00;;;;;;5005518;28;20459;-82
2023/04/30 02:43:50;;;;;;;11.97;3.73;;;7.70;1.00;;;;;;5012988;28;20438;-82
2023/04/30 02:46:17;;;;;;;10.13;3.63;;;7.70;1.00;;;;;;4999747;28;20458;-82
2023/04/30 02:48:45;;;;;;;23.20;5.17;;;7.60;1.00;;;;;;5011920;28;20536;-83
2023/04/30 02:51:13;;;;;;;12.80;4.07;;;7.70;1.00;;;;;;5004630;28;20446;-81
2023/04/30 02:53:43;;;;;;;12.27;3.90;;;7.70;1.00;;;;;;5005632;28;20446;-82
2023/04/30 02:56:11;;;;;;;12.47;4.30;;;7.60;1.00;;;;;;5005937;28;20491;-83
2023/04/30 02:58:41;;;;;;;12.70;3.90;;;7.60;1.00;;;;;;5002819;28;20429;-82
2023/04/30 03:01:08;;;;;;;11.13;3.80;;;7.60;1.00;;;;;;5008550;28;21278;-83
2023/04/30 03:03:40;;;;;;;10.70;3.20;;;7.60;1.00;;;;;;5006643;28;20495;-82
2023/04/30 03:06:07;;;;;;;14.70;4.50;;;7.60;1.00;;;;;;5002677;28;20473;-83
2023/04/30 03:08:35;;;;;;;7.83;3.03;;;7.50;1.00;;;;;;5006418;28;20463;-83
2023/04/30 03:11:03;;;;;;;14.00;3.60;;;7.50;1.00;;;;;;5004750;28;20468;-83
2023/04/30 03:13:30;;;;;;;9.50;4.40;;;7.50;1.00;;;;;;5005864;28;20454;-82
2023/04/30 03:15:59;;;;;;;11.27;4.60;;;7.50;1.00;;;;;;5005355;28;20522;-82
2023/04/30 03:18:26;;;;;;;13.60;5.20;;;7.40;1.00;;;;;;4995482;28;20365;-83
2023/04/30 03:20:53;;;;;;;9.23;3.77;;;7.40;1.00;;;;;;5005855;28;20995;-83
2023/04/30 03:23:23;;;;;;;13.57;3.87;;;7.40;1.00;;;;;;5003071;28;20463;-83
2023/04/30 03:25:55;;;;;;;14.57;4.33;;;7.30;1.00;;;;;;4999651;28;20496;-82
2023/04/30 03:28:24;;;;;;;9.90;3.40;;;7.30;1.00;;;;;;5202643;23;20503;-82
2023/04/30 03:30:51;;;;;;;9.80;3.77;;;7.30;1.00;;;;;;5008119;28;21200;-82
2023/04/30 03:33:20;;;;;;;12.33;4.43;;;7.20;1.00;;;;;;5010650;28;20479;-83
2023/04/30 03:35:48;;;;;;;11.43;4.17;;;7.20;1.00;;;;;;5008296;28;20533;-82
2023/04/30 03:38:17;;;;;;;11.57;4.87;;;7.20;1.00;;;;;;5006037;28;20454;-83
2023/04/30 03:40:44;;;;;;;12.67;4.17;;;7.20;1.00;;;;;;5004186;28;20422;-83
2023/04/30 03:43:13;;;;;;;13.20;4.33;;;7.10;1.00;;;;;;4988775;28;20474;-81
2023/04/30 03:45:43;;;;;;;12.57;4.20;;;7.10;1.00;;;;;;5006475;28;20500;-83
2023/04/30 03:48:10;;;;;;;15.70;4.53;;;7.10;1.00;;;;;;5008962;28;20449;-83
2023/04/30 03:50:37;;;;;;;7.90;3.47;;;7.00;1.00;;;;;;5006997;28;21317;-84
2023/04/30 03:53:05;;;;;;;9.87;3.67;;;7.10;1.00;;;;;;5010290;28;20505;-84
2023/04/30 03:55:34;;;;;;;8.63;3.53;;;7.10;1.00;;;;;;4992258;28;20456;-82
2023/04/30 03:58:01;;;;;;;10.50;4.03;;;7.10;1.00;;;;;;5004603;28;20238;-83
2023/04/30 04:00:33;;;;;;;9.57;4.03;;;7.10;1.00;;;;;;5006056;28;20486;-83
2023/04/30 04:03:00;;;;;;;10.03;4.30;;;7.00;1.00;;;;;;5007445;28;20551;-83
2023/04/30 04:08:17;;;;;;;10.13;4.30;;;6.90;1.00;;;;;;5241391;23;20266;-83
2023/04/30 04:10:53;;;;;;;12.87;4.50;;;6.90;1.00;;;;;;5035258;28;20454;-83
2023/04/30 04:13:24;;;;;;;9.97;4.13;;;6.90;1.00;;;;;;5021777;28;20446;-83
2023/04/30 04:15:53;;;;;;;12.75;5.50;;;6.90;1.00;;;;;;5034550;28;20448;-84
2023/04/30 04:18:20;;;;;;;10.77;4.32;;;6.90;1.00;;;;;;5044885;28;20290;-84
2023/04/30 04:20:47;;;;;;;9.70;3.97;;;6.90;1.00;;;;;;5043956;28;20229;-83
2023/04/30 04:23:14;;;;;;;9.73;4.70;;;6.90;1.00;;;;;;5043310;28;20496;-82
2023/04/30 04:25:43;;;;;;;9.82;5.00;;;6.90;1.00;;;;;;5042361;28;20234;-83
2023/04/30 04:28:12;;;;;;;11.07;4.80;;;6.90;1.00;;;;;;5041339;28;20305;-84
2023/04/30 04:30:42;;;;;;;15.50;4.50;;;6.90;1.00;;;;;;5032812;28;20415;-83
2023/04/30 04:33:16;;;;;;;9.40;4.15;;;6.90;1.00;;;;;;5036664;28;20466;-83
2023/04/30 04:35:43;;;;;;;11.35;4.20;;;6.80;1.00;;;;;;5028341;28;20243;-84
2023/04/30 04:38:11;;;;;;;11.60;4.13;;;6.80;1.00;;;;;;5040255;28;20226;-84
2023/04/30 04:40:38;;;;;;;13.73;4.70;;;6.80;1.00;;;;;;5037877;28;20439;-83
2023/04/30 04:43:06;;;;;;;11.83;5.30;;;6.80;1.00;;;;;;5043789;28;21445;-83
2023/04/30 04:45:37;;;;;;;9.73;3.53;;;6.80;1.00;;;;;;5035956;28;20452;-82
2023/04/30 04:48:06;;;;;;;11.73;5.93;;;6.90;1.00;;;;;;5022667;28;20242;-83
2023/04/30 04:50:35;;;;;;;8.70;4.00;;;7.00;1.00;;;;;;5035304;28;20421;-83
2023/04/30 04:53:02;;;;;;;12.13;4.40;;;7.00;1.00;;;;;;5041758;28;20463;-82
2023/04/30 04:55:30;;;;;;;10.55;4.68;;;7.00;1.00;;;;;;5035663;28;21287;-82
2023/04/30 04:57:59;;;;;;;14.17;4.10;;;7.00;1.00;;;;;;5032670;28;20305;-83
2023/04/30 05:00:27;;;;;;;9.30;3.60;;;7.10;1.00;;;;;;5035120;28;20584;-82
2023/04/30 05:03:19;;;;;;;10.30;3.53;;;7.10;1.00;;;;;;5046948;28;20484;-82
2023/04/30 05:06:11;;;;;;;10.68;4.57;;;7.10;1.00;;;;;;5017578;28;20242;-83
2023/04/30 05:08:43;;;;;;;9.30;3.95;;;7.10;1.00;;;;;;5042756;28;20230;-83
2023/04/30 05:11:13;;;;;;;10.07;3.80;;;7.10;1.00;;;;;;5017170;28;20219;-82
2023/04/30 05:13:46;;;;;;;9.87;4.60;;;7.10;1.00;;;;;;5030923;28;20461;-82
2023/04/30 05:16:15;;;;;;;10.00;4.53;;;7.20;1.00;;;;;;5016003;28;20492;-82
2023/04/30 05:18:51;;;;;;;9.90;4.13;;;7.20;1.00;;;;;;5040105;28;20434;-82
2023/04/30 05:21:53;;;;;;;13.70;5.70;;;7.20;1.00;;;;;;5006250;28;21331;-83
2023/04/30 05:24:39;;;;;;;10.83;4.60;;;7.30;1.00;;;;;;5039404;28;20479;-85
2023/04/30 05:27:08;;;;;;;13.07;4.75;;;7.40;1.00;;;;;;5009968;28;20455;-83
2023/04/30 05:29:39;;;;;;;11.80;5.10;;;7.50;1.00;;;;;;5017834;28;20242;-82
2023/04/30 05:32:13;;;;;;;12.27;4.67;;;7.60;1.00;;;;;;5037554;28;20445;-83
2023/04/30 05:34:44;;;;;;;11.80;4.10;;;7.60;1.00;;;;;;5034125;28;20470;-82
2023/04/30 05:37:13;;;;;;;10.03;4.90;;;7.60;1.00;;;;;;5036936;28;20429;-81
2023/04/30 05:39:47;;;;;;;10.83;4.60;;;7.70;1.00;;;;;;5031747;28;20649;-82
2023/04/30 05:42:17;;;;;;;11.23;4.70;;;7.80;1.00;;;;;;5033219;28;20465;-82
2023/04/30 05:44:48;;;;;;;12.60;4.77;;;7.90;1.00;;;;;;5040406;28;20442;-83
2023/04/30 05:47:17;;;;;;;13.20;4.57;;;8.00;1.00;;;;;;5035621;28;20421;-85
2023/04/30 05:49:48;;;;;;;12.37;5.40;;;8.00;1.00;;;;;;5046024;28;20426;-83
2023/04/30 05:52:16;;;;;;;11.27;4.90;;;8.10;1.00;;;;;;5048098;28;20468;-82
2023/04/30 05:54:46;;;;;;;9.03;3.67;;;8.20;1.00;;;;;;5040373;28;20447;-82
2023/04/30 05:57:34;;;;;;;10.47;3.87;;;8.20;1.00;;;;;;5041126;28;20439;-81
2023/04/30 06:00:05;;;;;;;11.60;4.50;;;8.20;1.00;;;;;;5030983;28;20439;-82
2023/04/30 06:02:39;;;;;;;8.83;4.00;;;8.30;1.00;;;;;;5018110;28;20458;-84
2023/04/30 06:05:08;;;;;;;11.90;4.10;;;8.50;1.00;;;;;;5040289;28;20473;-85
2023/04/30 06:13:15;;;;;;;14.20;4.07;;;8.90;1.00;;;;;;5453314;23;20248;-83
2023/04/30 06:18:28;;;;;;;9.97;3.97;;;9.10;1.00;;;;;;4999695;28;20412;-83
2023/04/30 06:20:58;;;;;;;10.93;3.87;;;9.30;1.00;;;;;;5008061;28;20432;-83
2023/04/30 06:23:28;;;;;;;10.50;4.00;;;9.30;1.00;;;;;;4997138;28;20415;-83
2023/04/30 06:25:58;;;;;;;12.67;4.23;;;9.40;1.00;;;;;;5015466;28;20447;-83
2023/04/30 06:28:28;;;;;;;12.60;4.10;;;9.30;1.00;;;;;;5006867;28;20600;-83
2023/04/30 06:30:56;;;;;;;13.30;5.03;;;9.30;1.00;;;;;;5004766;28;20428;-83
2023/04/30 06:33:30;;;;;;;14.20;4.80;;;9.20;1.00;;;;;;5002989;28;21005;-84
2023/04/30 06:35:57;;;;;;;10.23;4.33;;;9.20;1.00;;;;;;5006782;28;20472;-83
2023/04/30 06:38:24;;;;;;;12.83;4.23;;;9.10;1.00;;;;;;5001074;28;20541;-83
2023/04/30 06:40:52;;;;;;;12.80;4.53;;;9.10;1.00;;;;;;4988200;28;20463;-82
2023/04/30 06:46:11;;;;;;;10.50;4.13;;;9.30;1.00;;;;;;4996462;28;20443;-84
2023/04/30 06:48:46;;;;;;;11.73;4.17;;;9.30;1.00;;;;;;4992519;28;20463;-83
2023/04/30 06:51:34;;;;;;;10.57;4.43;;;9.30;1.00;;;;;;5001445;28;20466;-83
2023/04/30 06:54:17;;;;;;;7.93;4.10;;;9.30;1.00;;;;;;4971738;28;20453;-83
2023/04/30 06:56:45;;;;;;;9.63;3.83;;;9.40;1.00;;;;;;5004271;28;20434;-83
2023/04/30 06:59:12;;;;;;;9.73;4.33;;;9.60;1.00;;;;;;5015230;28;20455;-81
2023/04/30 07:01:41;;;;;;;12.23;5.20;;;9.70;1.00;;;;;;5010305;28;20428;-83
2023/04/30 07:04:10;;;;;;;12.90;4.20;;;9.70;1.00;;;;;;4994738;28;20437;-83
2023/04/30 07:06:37;;;;;;;11.30;4.10;;;9.90;1.00;;;;;;4986607;28;20453;-82
2023/04/30 07:09:07;;;;;;;11.50;4.60;;;9.80;1.00;;;;;;4988578;28;20474;-83
2023/04/30 07:11:35;;;;;;;11.43;4.20;;;9.90;1.00;;;;;;4995697;28;20538;-85
2023/04/30 07:14:02;;;;;;;10.20;4.13;;;9.80;1.00;;;;;;4984126;28;20459;-84
2023/04/30 07:16:29;;;;;;;9.53;4.43;;;9.80;1.00;;;;;;5005145;28;20468;-84
2023/04/30 07:18:58;;;;;;;14.00;4.27;;;9.90;1.00;;;;;;5001473;28;20522;-83
2023/04/30 07:21:26;;;;;;;13.13;4.70;;;10.00;1.00;;;;;;5002063;28;20448;-83
2023/04/30 07:23:53;;;;;;;11.93;4.80;;;10.00;1.00;;;;;;5004314;28;20424;-83
2023/04/30 07:26:23;;;;;;;10.90;4.70;;;10.10;1.00;;;;;;4992433;28;20441;-83
2023/04/30 07:28:51;;;;;;;11.80;4.30;;;10.20;1.00;;;;;;4996996;28;20530;-84
2023/04/30 07:31:18;;;;;;;10.67;4.30;;;10.30;1.00;;;;;;4987887;28;21016;-84
2023/04/30 07:33:45;;;;;;;11.70;4.87;;;10.40;1.00;;;;;;4988175;28;20455;-83
2023/04/30 07:36:13;;;;;;;11.73;4.50;;;10.50;1.00;;;;;;4992869;28;20484;-83
2023/04/30 07:38:40;;;;;;;8.63;3.80;;;10.70;1.00;;;;;;4986470;28;20463;-84
2023/04/30 07:41:08;;;;;;;9.10;5.40;;;10.80;1.00;;;;;;4992925;28;21008;-83
2023/04/30 07:43:35;;;;;;;9.30;4.00;;;10.90;1.00;;;;;;4986816;28;21300;-83
2023/04/30 07:46:02;;;;;;;11.67;4.70;;;11.00;1.00;;;;;;4995726;28;20471;-83
2023/04/30 07:48:29;;;;;;;9.47;4.77;;;10.90;1.00;;;;;;4992767;28;20562;-83
2023/04/30 07:50:56;;;;;;;9.40;4.60;;;10.90;1.00;;;;;;4991161;28;20435;-83
2023/04/30 07:53:25;;;;;;;9.07;4.60;;;11.00;1.00;;;;;;4992701;28;20506;-84
2023/04/30 07:55:52;;;;;;;9.27;4.27;;;11.10;1.00;;;;;;4999343;28;20483;-83
2023/04/30 07:58:19;;;;;;;11.83;4.60;;;11.30;1.00;;;;;;4989942;28;20436;-82
2023/04/30 08:00:46;;;;;;;8.50;4.30;;;11.50;1.00;;;;;;4991049;28;20551;-83
2023/04/30 08:03:13;;;;;;;9.83;4.20;;;11.60;1.00;;;;;;4985478;28;20552;-83
2023/04/30 08:05:41;;;;;;;7.53;3.63;;;11.80;1.00;;;;;;4991998;28;20499;-83
2023/04/30 08:08:08;;;;;;;9.80;4.60;;;11.80;1.00;;;;;;4994315;28;20416;-84
2023/04/30 08:10:36;;;;;;;13.20;4.03;;;11.80;1.00;;;;;;4997009;28;20995;-83
2023/04/30 08:13:05;;;;;;;10.53;4.00;;;11.70;1.00;;;;;;4989162;28;20428;-83
2023/04/30 08:15:33;;;;;;;8.57;3.33;;;11.60;1.00;;;;;;4989390;28;20450;-84
2023/04/30 08:18:01;;;;;;;9.30;3.80;;;11.50;1.00;;;;;;4986757;28;20463;-84
2023/04/30 08:20:29;;;;;;;8.47;3.60;;;11.40;1.00;;;;;;4986837;28;20459;-83
2023/04/30 08:22:56;;;;;;;8.43;3.90;;;11.40;1.00;;;;;;4999748;28;20510;-83
2023/04/30 08:25:23;;;;;;;9.13;3.80;;;11.50;1.00;;;;;;4996536;28;20574;-82
2023/04/30 08:27:51;;;;;;;11.00;4.20;;;11.50;1.00;;;;;;4991862;28;20456;-83
2023/04/30 08:30:18;;;;;;;9.20;4.00;;;11.50;1.00;;;;;;4992163;28;20527;-83
2023/04/30 08:32:55;;;;;;;8.73;3.70;;;11.70;1.00;;;;;;4996003;28;20501;-83
2023/04/30 08:35:31;;;;;;;8.77;3.50;;;11.80;1.00;;;;;;5092057;23;20452;-82
2023/04/30 08:38:00;;;;;;;8.00;3.63;;;12.00;1.00;;;;;;5013873;28;20495;-82
2023/04/30 08:40:30;;;;;;;12.20;3.40;;;12.00;1.00;;;;;;5004964;28;20459;-82
2023/04/30 08:43:05;;;;;;;9.07;4.20;;;12.00;1.00;;;;;;5014712;28;20473;-83
2023/04/30 08:45:34;;;;;;;9.10;3.60;;;12.10;1.00;;;;;;5014107;28;20477;-84
2023/04/30 08:48:01;;;;;;;6.20;3.00;;;12.20;1.00;;;;;;5010999;28;20459;-82
2023/04/30 08:50:28;;;;;;;9.57;3.50;;;12.40;1.00;;;;;;5010792;28;20518;-83
2023/04/30 08:52:56;;;;;;;7.87;3.10;;;12.50;1.00;;;;;;5010802;28;20538;-83
2023/04/30 08:55:24;;;;;;;6.43;3.30;;;12.50;1.00;;;;;;5013360;28;20501;-84
2023/04/30 08:57:51;;;;;;;6.23;2.67;;;12.60;1.00;;;;;;5016789;28;20471;-83
2023/04/30 09:00:22;;;;;;;6.30;2.73;;;12.70;1.00;;;;;;5014552;28;20917;-82
2023/04/30 09:02:50;;;;;;;7.23;3.67;;;12.90;1.00;;;;;;5009775;28;20491;-81
2023/04/30 09:05:17;;;;;;;11.70;3.80;;;13.10;1.00;;;;;;5010684;28;20472;-83
2023/04/30 09:07:47;;;;;;;6.80;3.67;;;13.40;1.00;;;;;;5013603;28;20988;-83
2023/04/30 09:10:19;;;;;;;6.37;2.83;;;13.60;1.00;;;;;;5017239;28;20426;-82
2023/04/30 09:12:59;;;;;;;10.33;6.30;;;13.70;1.00;;;;;;5010221;28;20492;-83
2023/04/30 09:15:27;;;;;;;5.93;2.63;;;13.80;1.00;;;;;;5016006;28;20440;-83
2023/04/30 09:18:08;;;;;;;7.03;3.23;;;13.80;1.00;;;;;;5021937;28;20473;-84
2023/04/30 09:20:36;;;;;;;8.83;4.23;;;13.80;1.00;;;;;;5017387;28;21378;-83
2023/04/30 09:23:08;;;;;;;7.13;3.00;;;14.00;1.00;;;;;;5017791;28;20481;-84
2023/04/30 09:25:42;;;;;;;7.00;3.23;;;14.10;1.00;;;;;;5024440;28;20441;-83
2023/04/30 09:28:10;;;;;;;8.67;3.00;;;14.40;1.00;;;;;;5021321;28;20440;-84
2023/04/30 09:30:39;;;;;;;5.67;2.97;;;15.00;1.00;;;;;;5017239;28;20422;-85
2023/04/30 09:33:07;;;;;;;6.50;2.90;;;15.70;1.00;;;;;;5016961;28;20483;-86
2023/04/30 09:35:35;;;;;;;11.40;3.50;;;16.80;1.00;;;;;;5015772;28;20455;-85
2023/04/30 09:38:03;;;;;;;5.83;2.63;;;18.40;1.00;;;;;;5010254;28;20504;-86
2023/04/30 09:40:34;;;;;;;5.80;3.30;;;20.10;1.00;;;;;;5013897;28;20470;-82
2023/04/30 09:43:02;;;;;;;6.37;2.57;;;21.50;1.00;;;;;;5015904;28;20410;-84
2023/04/30 09:45:41;;;;;;;4.83;2.90;;;22.70;1.00;;;;;;5017005;28;20480;-82
2023/04/30 09:48:10;;;;;;;5.17;2.80;;;23.50;1.00;;;;;;5011577;28;20551;-83
2023/04/30 09:50:40;;;;;;;4.17;2.57;;;24.00;1.00;;;;;;5011278;28;20887;-83
2023/04/30 09:53:08;;;;;;;6.20;3.20;;;24.30;1.00;;;;;;5014953;28;20439;-83
2023/04/30 09:55:36;;;;;;;5.07;3.00;;;24.40;1.00;;;;;;5012262;28;20556;-83
2023/04/30 09:58:06;;;;;;;6.43;3.20;;;24.70;1.00;;;;;;5012902;28;20578;-85
2023/04/30 10:00:34;;;;;;;4.80;2.87;;;24.90;1.00;;;;;;5015741;28;20463;-79
2023/04/30 10:03:07;;;;;;;4.47;3.10;;;25.20;1.00;;;;;;5014850;28;20478;-82
2023/04/30 10:05:37;;;;;;;4.20;2.70;;;25.30;1.00;;;;;;5018069;28;20473;-82
2023/04/30 10:08:07;;;;;;;4.97;2.97;;;25.60;1.00;;;;;;5021161;28;20492;-82
2023/04/30 10:10:37;;;;;;;10.60;3.27;;;25.90;1.00;;;;;;5016672;28;20446;-83
2023/04/30 10:13:08;;;;;;;5.00;2.87;;;26.50;1.00;;;;;;5017633;28;20479;-82
2023/04/30 10:15:38;;;;;;;5.60;4.50;;;27.00;1.00;;;;;;5015254;28;20540;-83
2023/04/30 10:18:12;;;;;;;3.20;2.40;;;27.00;1.00;;;;;;5018741;28;20467;-82
2023/04/30 10:20:39;;;;;;;4.43;3.53;;;27.10;1.00;;;;;;5016478;28;20457;-83
2023/04/30 10:23:07;;;;;;;3.40;2.37;;;27.20;1.00;;;;;;5013513;28;20986;-82
2023/04/30 10:25:34;;;;;;;8.90;6.83;;;27.40;1.00;;;;;;5020747;28;20601;-82
2023/04/30 10:28:02;;;;;;;4.70;2.90;;;27.40;1.00;;;;;;5015460;28;20485;-82
2023/04/30 10:30:30;;;;;;;5.00;3.17;;;27.40;1.00;;;;;;5014744;28;20524;-81
2023/04/30 10:33:06;;;;;;;6.00;2.67;;;27.20;1.00;;;;;;5017596;28;20535;-82
2023/04/30 10:35:45;;;;;;;8.17;3.07;;;27.50;1.00;;;;;;5016247;28;20469;-82
2023/04/30 10:38:18;;;;;;;3.70;2.43;;;27.80;1.00;;;;;;5016896;28;20479;-84
2023/04/30 10:40:46;;;;;;;3.77;3.20;;;28.10;1.00;;;;;;5015846;28;20500;-84
2023/04/30 10:43:14;;;;;;;5.40;3.13;;;27.80;1.00;;;;;;5019195;28;21077;-83
2023/04/30 10:45:44;;;;;;;6.00;3.37;;;27.40;1.00;;;;;;5015214;28;20477;-83
2023/04/30 10:48:14;;;;;;;4.60;3.50;;;27.30;1.00;;;;;;5014940;28;20424;-82
2023/04/30 10:50:44;;;;;;;5.53;2.80;;;27.50;1.00;;;;;;5017547;28;20480;-82
2023/04/30 10:53:15;;;;;;;4.20;3.30;;;27.50;1.00;;;;;;5013007;28;20923;-83
2023/04/30 10:55:52;;;;;;;4.80;2.93;;;27.50;1.00;;;;;;5020684;28;20525;-83
2023/04/30 10:58:26;;;;;;;3.97;2.80;;;27.80;1.00;;;;;;5018955;28;20442;-83
2023/04/30 11:01:01;;;;;;;5.80;3.10;;;28.30;1.00;;;;;;5014784;28;21234;-83
2023/04/30 11:03:31;;;;;;;4.10;2.97;;;28.50;1.00;;;;;;5016602;28;20469;-82
2023/04/30 11:06:02;;;;;;;3.63;3.17;;;28.80;1.00;;;;;;5015719;28;20985;-84
2023/04/30 11:08:36;;;;;;;4.70;3.40;;;29.20;1.00;;;;;;5012388;28;20553;-83
2023/04/30 11:11:04;;;;;;;4.20;3.20;;;29.10;1.00;;;;;;5017374;28;20461;-83
2023/04/30 11:13:44;;;;;;;3.10;2.50;;;28.90;1.00;;;;;;5018290;28;20454;-82
2023/04/30 11:16:11;;;;;;;5.13;3.10;;;28.90;1.00;;;;;;5012620;28;20968;-83
2023/04/30 11:18:43;;;;;;;3.80;3.03;;;29.40;1.00;;;;;;5013813;28;20474;-83
2023/04/30 11:21:12;;;;;;;3.93;2.77;;;29.90;1.00;;;;;;5016042;28;20501;-83
2023/04/30 11:23:42;;;;;;;3.60;2.73;;;29.60;1.00;;;;;;5013027;28;20646;-82
2023/04/30 11:26:10;;;;;;;5.00;3.40;;;29.60;1.00;;;;;;5020007;28;20591;-80
2023/04/30 11:28:39;;;;;;;3.77;2.57;;;29.60;1.00;;;;;;5016830;28;20586;-82
2023/04/30 11:31:06;;;;;;;3.70;2.97;;;29.80;1.00;;;;;;5010742;28;20457;-82
2023/04/30 11:33:34;;;;;;;4.33;3.07;;;30.20;1.00;;;;;;5013379;28;20454;-84
2023/04/30 11:36:02;;;;;;;4.60;3.20;;;30.80;1.00;;;;;;5020512;28;20434;-83
2023/04/30 11:38:31;;;;;;;4.83;2.93;;;31.10;1.00;;;;;;5017291;28;20900;-82
2023/04/30 11:40:59;;;;;;;4.13;2.70;;;31.10;1.00;;;;;;5012302;28;20461;-82
2023/04/30 11:43:28;;;;;;;4.20;2.70;;;31.30;1.00;;;;;;5013078;28;20462;-83
2023/04/30 11:46:09;;;;;;;5.50;3.10;;;31.10;1.00;;;;;;5018858;28;20520;-83
2023/04/30 11:48:39;;;;;;;3.40;2.90;;;31.30;1.00;;;;;;5014666;28;21298;-83
2023/04/30 11:51:15;;;;;;;5.30;3.20;;;31.00;1.00;;;;;;5015191;28;21028;-83
2023/04/30 11:53:45;;;;;;;4.03;3.00;;;31.50;1.00;;;;;;5016604;28;20492;-82
2023/04/30 11:56:13;;;;;;;4.00;2.87;;;31.80;1.00;;;;;;5014833;28;20502;-83
2023/04/30 11:58:40;;;;;;;4.50;2.90;;;31.90;1.00;;;;;;5011739;28;20516;-83
2023/04/30 12:01:08;;;;;;;3.93;2.80;;;32.00;1.00;;;;;;5014149;28;20516;-83
2023/04/30 12:03:41;;;;;;;3.10;2.80;;;32.00;1.00;;;;;;5018071;28;20480;-84
2023/04/30 12:06:10;;;;;;;4.70;3.47;;;32.30;1.00;;;;;;5016872;28;20453;-84
2023/04/30 12:08:37;;;;;;;4.27;3.20;;;32.60;1.00;;;;;;5017767;28;20454;-83
2023/04/30 12:11:06;;;;;;;4.87;2.93;;;32.70;1.00;;;;;;5020389;28;21312;-83
2023/04/30 12:13:33;;;;;;;4.50;2.70;;;32.60;1.00;;;;;;5013429;28;20469;-84
2023/04/30 12:16:01;;;;;;;4.37;3.10;;;32.40;1.00;;;;;;5016661;28;20469;-85
2023/04/30 12:18:28;;;;;;;5.20;3.20;;;32.60;1.00;;;;;;5011614;28;20557;-86
2023/04/30 12:20:56;;;;;;;6.30;4.10;;;32.40;1.00;;;;;;5016184;28;20446;-86
2023/04/30 12:23:23;;;;;;;3.23;2.47;;;32.50;1.00;;;;;;5015830;28;20451;-84
2023/04/30 12:25:50;;;;;;;3.93;3.33;;;32.20;1.00;;;;;;5016074;28;20438;-85
2023/04/30 12:28:18;;;;;;;4.97;3.27;;;32.40;1.00;;;;;;5002963;28;20938;-83
2023/04/30 12:30:47;;;;;;;6.53;2.60;;;33.10;1.00;;;;;;5017062;28;20493;-83
2023/04/30 12:33:14;;;;;;;3.50;2.70;;;33.50;1.00;;;;;;5012073;28;20543;-83
2023/04/30 12:35:43;;;;;;;4.70;3.27;;;33.80;1.00;;;;;;5015138;28;20533;-83
2023/04/30 12:38:10;;;;;;;3.33;3.03;;;34.00;1.00;;;;;;5014715;28;20561;-84
2023/04/30 12:40:37;;;;;;;6.33;4.90;;;34.50;1.00;;;;;;5010564;28;20549;-84
2023/04/30 12:43:06;;;;;;;6.90;3.60;;;34.70;1.00;;;;;;5013324;28;20818;-84
2023/04/30 12:45:51;;;;;;;3.67;3.00;;;34.60;1.00;;;;;;5011619;28;20497;-83
2023/04/30 12:48:20;;;;;;;3.20;2.90;;;35.00;1.00;;;;;;5013383;28;20466;-82
2023/04/30 12:50:51;;;;;;;3.07;2.77;;;34.90;1.00;;;;;;5012321;28;20466;-83
2023/04/30 12:53:18;;;;;;;3.90;3.60;;;34.90;1.00;;;;;;5013012;28;20870;-82
2023/04/30 12:56:00;;;;;;;4.50;3.30;;;34.90;1.00;;;;;;5012194;28;20457;-85
2023/04/30 12:58:31;;;;;;;5.90;4.07;;;34.60;1.00;;;;;;5015989;28;20963;-87
2023/04/30 13:01:02;;;;;;;3.80;2.43;;;34.60;1.00;;;;;;5013424;28;20557;-87
2023/04/30 13:03:29;;;;;;;6.17;3.10;;;34.40;1.00;;;;;;4997292;28;20565;-88
2023/04/30 13:06:01;;;;;;;5.27;3.60;;;33.80;1.00;;;;;;5014158;28;21448;-88
2023/04/30 13:08:28;;;;;;;3.80;2.90;;;33.50;1.00;;;;;;5010893;28;20449;-86
2023/04/30 13:10:55;;;;;;;3.80;3.40;;;33.00;1.00;;;;;;5011296;28;20618;-89
2023/04/30 13:13:22;;;;;;;9.50;8.60;;;32.60;1.00;;;;;;5011048;28;21274;-88
2023/04/30 13:15:49;;;;;;;5.03;3.20;;;32.90;1.00;;;;;;5015210;28;20504;-88
2023/04/30 13:18:18;;;;;;;3.20;2.70;;;33.50;1.00;;;;;;5018017;28;20454;-89
2023/04/30 13:20:45;;;;;;;5.03;3.90;;;34.00;1.00;;;;;;5013361;28;20541;-88
2023/04/30 13:23:12;;;;;;;3.77;3.27;;;33.80;1.00;;;;;;5014641;28;20463;-88
2023/04/30 13:25:41;;;;;;;5.17;3.20;;;33.60;1.00;;;;;;5010808;28;20551;-88